sensor_id;sensor_type;location;lat;lon;timestamp;P1;durP1;ratioP1;P2;durP2;ratioP2
6135;SDS011;24008;42.664;23.372;2022-11-10T00:01:02;65.87;;;37.83;;
6135;SDS011;24008;42.664;23.372;2022-11-10T00:03:29;65.03;;;37.40;;
6135;SDS011;24008;42.664;23.372;2022-11-10T00:05:56;67.10;;;38.60;;
6135;SDS011;24008;42.664;23.372;2022-11-10T00:08:23;62.33;;;38.70;;
6135;SDS011;24008;42.664;23.372;2022-11-10T00:10:49;57.33;;;39.20;;
6135;SDS011;24008;42.664;23.372;2022-11-10T00:13:31;61.07;;;37.67;;
6135;SDS011;24008;42.664;23.372;2022-11-10T00:15:59;58.83;;;35.63;;
6135;SDS011;24008;42.664;23.372;2022-11-10T00:18:45;63.17;;;38.63;;
6135;SDS011;24008;42.664;23.372;2022-11-10T00:21:12;61.50;;;36.67;;
6135;SDS011;24008;42.664;23.372;2022-11-10T00:23:41;61.90;;;37.57;;
6135;SDS011;24008;42.664;23.372;2022-11-10T00:26:11;61.63;;;37.30;;
6135;SDS011;24008;42.664;23.372;2022-11-10T00:28:41;61.87;;;38.03;;
6135;SDS011;24008;42.664;23.372;2022-11-10T00:31:08;63.83;;;38.17;;
6135;SDS011;24008;42.664;23.372;2022-11-10T00:33:36;57.90;;;37.07;;
6135;SDS011;24008;42.664;23.372;2022-11-10T00:36:04;60.77;;;36.97;;
6135;SDS011;24008;42.664;23.372;2022-11-10T00:38:31;62.33;;;39.60;;
6135;SDS011;24008;42.664;23.372;2022-11-10T00:40:58;62.73;;;38.50;;
6135;SDS011;24008;42.664;23.372;2022-11-10T00:43:25;84.37;;;48.73;;
6135;SDS011;24008;42.664;23.372;2022-11-10T00:45:54;77.60;;;46.63;;
6135;SDS011;24008;42.664;23.372;2022-11-10T00:48:21;74.37;;;46.20;;
6135;SDS011;24008;42.664;23.372;2022-11-10T00:50:48;75.03;;;44.77;;
6135;SDS011;24008;42.664;23.372;2022-11-10T00:53:15;69.80;;;42.50;;
6135;SDS011;24008;42.664;23.372;2022-11-10T00:55:42;75.20;;;44.43;;
6135;SDS011;24008;42.664;23.372;2022-11-10T00:58:09;70.47;;;41.03;;
6135;SDS011;24008;42.664;23.372;2022-11-10T01:00:35;76.97;;;44.93;;
6135;SDS011;24008;42.664;23.372;2022-11-10T01:03:04;76.30;;;44.10;;
6135;SDS011;24008;42.664;23.372;2022-11-10T01:05:33;69.10;;;40.67;;
6135;SDS011;24008;42.664;23.372;2022-11-10T01:08:01;66.53;;;40.13;;
6135;SDS011;24008;42.664;23.372;2022-11-10T01:10:27;67.70;;;42.37;;
6135;SDS011;24008;42.664;23.372;2022-11-10T01:12:54;66.40;;;40.67;;
6135;SDS011;24008;42.664;23.372;2022-11-10T01:15:21;85.13;;;48.37;;
6135;SDS011;24008;42.664;23.372;2022-11-10T01:17:48;71.67;;;42.67;;
6135;SDS011;24008;42.664;23.372;2022-11-10T01:20:16;89.97;;;48.57;;
6135;SDS011;24008;42.664;23.372;2022-11-10T01:22:43;89.00;;;51.50;;
6135;SDS011;24008;42.664;23.372;2022-11-10T01:25:10;79.23;;;47.37;;
6135;SDS011;24008;42.664;23.372;2022-11-10T01:27:37;65.63;;;41.70;;
6135;SDS011;24008;42.664;23.372;2022-11-10T01:30:04;68.30;;;39.97;;
6135;SDS011;24008;42.664;23.372;2022-11-10T01:32:31;68.17;;;38.17;;
6135;SDS011;24008;42.664;23.372;2022-11-10T01:34:58;70.40;;;39.70;;
6135;SDS011;24008;42.664;23.372;2022-11-10T01:37:26;63.63;;;38.30;;
6135;SDS011;24008;42.664;23.372;2022-11-10T01:39:53;67.77;;;38.77;;
6135;SDS011;24008;42.664;23.372;2022-11-10T01:42:23;74.03;;;40.33;;
6135;SDS011;24008;42.664;23.372;2022-11-10T01:47:51;65.33;;;38.10;;
6135;SDS011;24008;42.664;23.372;2022-11-10T01:50:21;70.57;;;40.70;;
6135;SDS011;24008;42.664;23.372;2022-11-10T01:52:56;69.97;;;39.00;;
6135;SDS011;24008;42.664;23.372;2022-11-10T01:55:27;65.03;;;38.13;;
6135;SDS011;24008;42.664;23.372;2022-11-10T01:57:55;65.70;;;37.50;;
6135;SDS011;24008;42.664;23.372;2022-11-10T02:00:22;69.00;;;39.00;;
6135;SDS011;24008;42.664;23.372;2022-11-10T02:02:50;63.07;;;37.67;;
6135;SDS011;24008;42.664;23.372;2022-11-10T02:05:21;62.73;;;39.90;;
6135;SDS011;24008;42.664;23.372;2022-11-10T02:07:49;70.77;;;40.07;;
6135;SDS011;24008;42.664;23.372;2022-11-10T02:10:18;83.30;;;44.13;;
6135;SDS011;24008;42.664;23.372;2022-11-10T02:12:46;67.80;;;42.67;;
6135;SDS011;24008;42.664;23.372;2022-11-10T02:15:14;76.27;;;45.03;;
6135;SDS011;24008;42.664;23.372;2022-11-10T02:17:43;77.80;;;44.33;;
6135;SDS011;24008;42.664;23.372;2022-11-10T02:20:13;74.57;;;42.90;;
6135;SDS011;24008;42.664;23.372;2022-11-10T02:22:42;73.57;;;41.67;;
6135;SDS011;24008;42.664;23.372;2022-11-10T02:25:10;73.97;;;40.67;;
6135;SDS011;24008;42.664;23.372;2022-11-10T02:27:38;70.37;;;38.83;;
6135;SDS011;24008;42.664;23.372;2022-11-10T02:30:05;64.57;;;37.77;;
6135;SDS011;24008;42.664;23.372;2022-11-10T02:32:33;65.73;;;37.07;;
6135;SDS011;24008;42.664;23.372;2022-11-10T02:35:00;62.53;;;37.93;;
6135;SDS011;24008;42.664;23.372;2022-11-10T02:37:27;69.27;;;37.57;;
6135;SDS011;24008;42.664;23.372;2022-11-10T02:39:55;65.33;;;38.10;;
6135;SDS011;24008;42.664;23.372;2022-11-10T02:42:22;64.90;;;37.73;;
6135;SDS011;24008;42.664;23.372;2022-11-10T02:44:48;65.50;;;37.63;;
6135;SDS011;24008;42.664;23.372;2022-11-10T02:47:16;67.13;;;38.57;;
6135;SDS011;24008;42.664;23.372;2022-11-10T02:49:42;68.10;;;41.50;;
6135;SDS011;24008;42.664;23.372;2022-11-10T02:52:10;69.80;;;39.80;;
6135;SDS011;24008;42.664;23.372;2022-11-10T02:54:36;72.37;;;42.40;;
6135;SDS011;24008;42.664;23.372;2022-11-10T02:57:04;67.37;;;40.20;;
6135;SDS011;24008;42.664;23.372;2022-11-10T02:59:31;64.87;;;38.93;;
6135;SDS011;24008;42.664;23.372;2022-11-10T03:01:58;74.33;;;41.17;;
6135;SDS011;24008;42.664;23.372;2022-11-10T03:04:25;65.80;;;37.57;;
6135;SDS011;24008;42.664;23.372;2022-11-10T03:06:51;72.17;;;39.40;;
6135;SDS011;24008;42.664;23.372;2022-11-10T03:09:18;65.93;;;38.60;;
6135;SDS011;24008;42.664;23.372;2022-11-10T03:11:45;66.00;;;38.67;;
6135;SDS011;24008;42.664;23.372;2022-11-10T03:14:13;70.37;;;39.20;;
6135;SDS011;24008;42.664;23.372;2022-11-10T03:16:40;67.50;;;38.03;;
6135;SDS011;24008;42.664;23.372;2022-11-10T03:19:07;68.07;;;39.00;;
6135;SDS011;24008;42.664;23.372;2022-11-10T03:21:33;69.30;;;40.53;;
6135;SDS011;24008;42.664;23.372;2022-11-10T03:24:00;65.17;;;39.03;;
6135;SDS011;24008;42.664;23.372;2022-11-10T03:26:27;76.97;;;39.20;;
6135;SDS011;24008;42.664;23.372;2022-11-10T03:28:53;66.57;;;38.53;;
6135;SDS011;24008;42.664;23.372;2022-11-10T03:31:21;69.27;;;39.17;;
6135;SDS011;24008;42.664;23.372;2022-11-10T03:33:48;65.03;;;37.23;;
6135;SDS011;24008;42.664;23.372;2022-11-10T03:36:15;71.27;;;38.43;;
6135;SDS011;24008;42.664;23.372;2022-11-10T03:38:42;74.93;;;41.50;;
6135;SDS011;24008;42.664;23.372;2022-11-10T03:41:08;83.10;;;44.40;;
6135;SDS011;24008;42.664;23.372;2022-11-10T03:43:35;77.37;;;42.57;;
6135;SDS011;24008;42.664;23.372;2022-11-10T03:46:02;74.80;;;41.53;;
6135;SDS011;24008;42.664;23.372;2022-11-10T03:48:30;77.33;;;43.27;;
6135;SDS011;24008;42.664;23.372;2022-11-10T03:50:57;78.53;;;42.90;;
6135;SDS011;24008;42.664;23.372;2022-11-10T03:53:23;80.57;;;40.77;;
6135;SDS011;24008;42.664;23.372;2022-11-10T03:55:50;72.80;;;40.00;;
6135;SDS011;24008;42.664;23.372;2022-11-10T03:58:17;72.30;;;40.63;;
6135;SDS011;24008;42.664;23.372;2022-11-10T04:00:44;66.87;;;39.57;;
6135;SDS011;24008;42.664;23.372;2022-11-10T04:03:10;69.57;;;40.67;;
6135;SDS011;24008;42.664;23.372;2022-11-10T04:05:38;68.77;;;37.77;;
6135;SDS011;24008;42.664;23.372;2022-11-10T04:08:22;70.97;;;39.03;;
6135;SDS011;24008;42.664;23.372;2022-11-10T04:11:07;74.10;;;37.83;;
6135;SDS011;24008;42.664;23.372;2022-11-10T04:13:33;66.20;;;36.47;;
6135;SDS011;24008;42.664;23.372;2022-11-10T04:16:29;67.97;;;38.40;;
6135;SDS011;24008;42.664;23.372;2022-11-10T04:18:55;73.27;;;38.73;;
6135;SDS011;24008;42.664;23.372;2022-11-10T04:21:24;69.87;;;37.93;;
6135;SDS011;24008;42.664;23.372;2022-11-10T04:23:50;67.97;;;37.47;;
6135;SDS011;24008;42.664;23.372;2022-11-10T04:26:17;64.67;;;36.53;;
6135;SDS011;24008;42.664;23.372;2022-11-10T04:28:58;67.77;;;36.97;;
6135;SDS011;24008;42.664;23.372;2022-11-10T04:31:27;66.73;;;36.70;;
6135;SDS011;24008;42.664;23.372;2022-11-10T04:33:55;59.03;;;35.23;;
6135;SDS011;24008;42.664;23.372;2022-11-10T04:36:24;64.40;;;35.93;;
6135;SDS011;24008;42.664;23.372;2022-11-10T04:38:52;62.13;;;35.70;;
6135;SDS011;24008;42.664;23.372;2022-11-10T04:41:19;66.17;;;36.27;;
6135;SDS011;24008;42.664;23.372;2022-11-10T04:43:46;65.83;;;37.03;;
6135;SDS011;24008;42.664;23.372;2022-11-10T04:46:17;71.80;;;38.50;;
6135;SDS011;24008;42.664;23.372;2022-11-10T04:48:47;64.90;;;38.33;;
6135;SDS011;24008;42.664;23.372;2022-11-10T04:51:14;61.20;;;35.73;;
6135;SDS011;24008;42.664;23.372;2022-11-10T04:53:42;69.93;;;37.47;;
6135;SDS011;24008;42.664;23.372;2022-11-10T04:56:09;69.73;;;38.00;;
6135;SDS011;24008;42.664;23.372;2022-11-10T04:58:39;77.20;;;39.83;;
6135;SDS011;24008;42.664;23.372;2022-11-10T05:01:06;68.17;;;39.47;;
6135;SDS011;24008;42.664;23.372;2022-11-10T05:03:32;67.77;;;37.10;;
6135;SDS011;24008;42.664;23.372;2022-11-10T05:05:59;63.53;;;35.67;;
6135;SDS011;24008;42.664;23.372;2022-11-10T05:08:26;61.10;;;35.77;;
6135;SDS011;24008;42.664;23.372;2022-11-10T05:10:54;66.20;;;37.37;;
6135;SDS011;24008;42.664;23.372;2022-11-10T05:13:21;60.63;;;34.73;;
6135;SDS011;24008;42.664;23.372;2022-11-10T05:15:47;69.37;;;38.17;;
6135;SDS011;24008;42.664;23.372;2022-11-10T05:18:14;65.53;;;38.47;;
6135;SDS011;24008;42.664;23.372;2022-11-10T05:20:41;77.27;;;43.07;;
6135;SDS011;24008;42.664;23.372;2022-11-10T05:23:08;67.00;;;39.07;;
6135;SDS011;24008;42.664;23.372;2022-11-10T05:25:52;66.77;;;37.90;;
6135;SDS011;24008;42.664;23.372;2022-11-10T05:28:20;70.20;;;40.23;;
6135;SDS011;24008;42.664;23.372;2022-11-10T05:30:46;67.27;;;38.37;;
6135;SDS011;24008;42.664;23.372;2022-11-10T05:33:13;68.93;;;37.03;;
6135;SDS011;24008;42.664;23.372;2022-11-10T05:35:40;62.70;;;35.40;;
6135;SDS011;24008;42.664;23.372;2022-11-10T05:38:08;62.20;;;35.13;;
6135;SDS011;24008;42.664;23.372;2022-11-10T05:40:35;53.10;;;32.40;;
6135;SDS011;24008;42.664;23.372;2022-11-10T05:43:03;55.73;;;33.67;;
6135;SDS011;24008;42.664;23.372;2022-11-10T05:45:30;59.63;;;33.93;;
6135;SDS011;24008;42.664;23.372;2022-11-10T05:47:56;53.83;;;31.07;;
6135;SDS011;24008;42.664;23.372;2022-11-10T05:50:23;56.17;;;34.43;;
6135;SDS011;24008;42.664;23.372;2022-11-10T05:52:51;60.93;;;35.07;;
6135;SDS011;24008;42.664;23.372;2022-11-10T05:55:20;57.40;;;34.33;;
6135;SDS011;24008;42.664;23.372;2022-11-10T05:57:48;57.13;;;33.83;;
6135;SDS011;24008;42.664;23.372;2022-11-10T06:00:18;54.40;;;32.23;;
6135;SDS011;24008;42.664;23.372;2022-11-10T06:02:55;57.47;;;33.17;;
6135;SDS011;24008;42.664;23.372;2022-11-10T06:05:22;89.93;;;44.67;;
6135;SDS011;24008;42.664;23.372;2022-11-10T06:07:49;80.40;;;41.00;;
6135;SDS011;24008;42.664;23.372;2022-11-10T06:10:16;73.97;;;40.83;;
6135;SDS011;24008;42.664;23.372;2022-11-10T06:12:43;68.10;;;36.50;;
6135;SDS011;24008;42.664;23.372;2022-11-10T06:15:10;62.03;;;35.60;;
6135;SDS011;24008;42.664;23.372;2022-11-10T06:17:39;56.03;;;33.40;;
6135;SDS011;24008;42.664;23.372;2022-11-10T06:20:06;56.93;;;33.17;;
6135;SDS011;24008;42.664;23.372;2022-11-10T06:22:33;57.50;;;34.57;;
6135;SDS011;24008;42.664;23.372;2022-11-10T06:25:00;57.10;;;33.10;;
6135;SDS011;24008;42.664;23.372;2022-11-10T06:27:27;46.47;;;27.10;;
6135;SDS011;24008;42.664;23.372;2022-11-10T06:29:53;48.30;;;30.23;;
6135;SDS011;24008;42.664;23.372;2022-11-10T06:32:20;54.00;;;29.47;;
6135;SDS011;24008;42.664;23.372;2022-11-10T06:34:48;46.13;;;29.67;;
6135;SDS011;24008;42.664;23.372;2022-11-10T06:37:15;46.00;;;27.47;;
6135;SDS011;24008;42.664;23.372;2022-11-10T06:39:42;43.20;;;26.27;;
6135;SDS011;24008;42.664;23.372;2022-11-10T06:42:08;40.70;;;26.30;;
6135;SDS011;24008;42.664;23.372;2022-11-10T06:44:35;45.70;;;27.47;;
6135;SDS011;24008;42.664;23.372;2022-11-10T06:47:02;47.67;;;28.37;;
6135;SDS011;24008;42.664;23.372;2022-11-10T06:49:29;60.10;;;35.47;;
6135;SDS011;24008;42.664;23.372;2022-11-10T06:51:57;65.80;;;39.73;;
6135;SDS011;24008;42.664;23.372;2022-11-10T06:54:24;77.17;;;40.67;;
6135;SDS011;24008;42.664;23.372;2022-11-10T06:56:50;75.30;;;40.37;;
6135;SDS011;24008;42.664;23.372;2022-11-10T06:59:17;65.60;;;37.13;;
6135;SDS011;24008;42.664;23.372;2022-11-10T07:01:44;69.13;;;39.80;;
6135;SDS011;24008;42.664;23.372;2022-11-10T07:04:11;63.17;;;36.53;;
6135;SDS011;24008;42.664;23.372;2022-11-10T07:06:39;57.53;;;33.97;;
6135;SDS011;24008;42.664;23.372;2022-11-10T07:09:08;63.17;;;36.53;;
6135;SDS011;24008;42.664;23.372;2022-11-10T07:11:34;74.17;;;40.30;;
6135;SDS011;24008;42.664;23.372;2022-11-10T07:14:01;85.33;;;44.43;;
6135;SDS011;24008;42.664;23.372;2022-11-10T07:16:28;89.20;;;44.90;;
6135;SDS011;24008;42.664;23.372;2022-11-10T07:18:55;87.47;;;44.13;;
6135;SDS011;24008;42.664;23.372;2022-11-10T07:21:21;77.60;;;42.40;;
6135;SDS011;24008;42.664;23.372;2022-11-10T07:23:48;70.23;;;40.60;;
6135;SDS011;24008;42.664;23.372;2022-11-10T07:26:16;78.30;;;42.57;;
6135;SDS011;24008;42.664;23.372;2022-11-10T07:28:43;80.03;;;44.27;;
6135;SDS011;24008;42.664;23.372;2022-11-10T07:31:10;83.67;;;44.90;;
6135;SDS011;24008;42.664;23.372;2022-11-10T07:33:37;83.20;;;45.37;;
6135;SDS011;24008;42.664;23.372;2022-11-10T07:36:04;86.83;;;46.77;;
6135;SDS011;24008;42.664;23.372;2022-11-10T07:38:31;85.83;;;47.70;;
6135;SDS011;24008;42.664;23.372;2022-11-10T07:40:58;88.47;;;48.97;;
6135;SDS011;24008;42.664;23.372;2022-11-10T07:43:26;91.13;;;48.07;;
6135;SDS011;24008;42.664;23.372;2022-11-10T07:45:53;82.47;;;47.10;;
6135;SDS011;24008;42.664;23.372;2022-11-10T07:48:19;83.30;;;47.27;;
6135;SDS011;24008;42.664;23.372;2022-11-10T07:50:46;88.90;;;47.13;;
6135;SDS011;24008;42.664;23.372;2022-11-10T07:53:13;85.10;;;47.93;;
6135;SDS011;24008;42.664;23.372;2022-11-10T07:55:42;89.23;;;48.37;;
6135;SDS011;24008;42.664;23.372;2022-11-10T07:58:10;82.17;;;47.83;;
6135;SDS011;24008;42.664;23.372;2022-11-10T08:00:39;84.47;;;48.83;;
6135;SDS011;24008;42.664;23.372;2022-11-10T08:03:08;84.03;;;48.70;;
6135;SDS011;24008;42.664;23.372;2022-11-10T08:05:37;82.70;;;47.77;;
6135;SDS011;24008;42.664;23.372;2022-11-10T08:08:04;76.83;;;47.47;;
6135;SDS011;24008;42.664;23.372;2022-11-10T08:10:32;79.80;;;47.43;;
6135;SDS011;24008;42.664;23.372;2022-11-10T08:13:01;71.43;;;46.33;;
6135;SDS011;24008;42.664;23.372;2022-11-10T08:15:30;85.80;;;47.23;;
6135;SDS011;24008;42.664;23.372;2022-11-10T08:17:59;72.20;;;46.93;;
6135;SDS011;24008;42.664;23.372;2022-11-10T08:20:27;80.10;;;50.30;;
6135;SDS011;24008;42.664;23.372;2022-11-10T08:22:55;81.40;;;48.77;;
6135;SDS011;24008;42.664;23.372;2022-11-10T08:25:23;89.13;;;53.60;;
6135;SDS011;24008;42.664;23.372;2022-11-10T08:27:55;90.43;;;53.60;;
6135;SDS011;24008;42.664;23.372;2022-11-10T08:30:23;91.53;;;53.23;;
6135;SDS011;24008;42.664;23.372;2022-11-10T08:32:52;87.93;;;54.93;;
6135;SDS011;24008;42.664;23.372;2022-11-10T08:35:22;88.27;;;54.80;;
6135;SDS011;24008;42.664;23.372;2022-11-10T08:37:49;96.07;;;57.87;;
6135;SDS011;24008;42.664;23.372;2022-11-10T08:40:16;101.97;;;59.03;;
6135;SDS011;24008;42.664;23.372;2022-11-10T08:42:44;98.67;;;58.00;;
6135;SDS011;24008;42.664;23.372;2022-11-10T08:45:11;101.03;;;59.53;;
6135;SDS011;24008;42.664;23.372;2022-11-10T08:47:38;106.00;;;60.83;;
6135;SDS011;24008;42.664;23.372;2022-11-10T08:50:05;103.13;;;61.03;;
6135;SDS011;24008;42.664;23.372;2022-11-10T08:52:35;103.70;;;59.70;;
6135;SDS011;24008;42.664;23.372;2022-11-10T08:55:02;101.43;;;58.33;;
6135;SDS011;24008;42.664;23.372;2022-11-10T08:57:29;102.90;;;56.17;;
6135;SDS011;24008;42.664;23.372;2022-11-10T08:59:56;105.07;;;57.23;;
6135;SDS011;24008;42.664;23.372;2022-11-10T09:02:23;93.50;;;56.73;;
6135;SDS011;24008;42.664;23.372;2022-11-10T09:04:52;88.77;;;55.10;;
6135;SDS011;24008;42.664;23.372;2022-11-10T09:07:19;97.53;;;57.03;;
6135;SDS011;24008;42.664;23.372;2022-11-10T09:09:47;100.67;;;56.47;;
6135;SDS011;24008;42.664;23.372;2022-11-10T09:12:14;98.57;;;58.23;;
6135;SDS011;24008;42.664;23.372;2022-11-10T09:14:41;104.43;;;59.07;;
6135;SDS011;24008;42.664;23.372;2022-11-10T09:17:08;109.07;;;59.83;;
6135;SDS011;24008;42.664;23.372;2022-11-10T09:19:34;102.23;;;58.43;;
6135;SDS011;24008;42.664;23.372;2022-11-10T09:22:02;105.40;;;61.07;;
6135;SDS011;24008;42.664;23.372;2022-11-10T09:24:29;109.87;;;60.13;;
6135;SDS011;24008;42.664;23.372;2022-11-10T09:26:58;104.03;;;60.37;;
6135;SDS011;24008;42.664;23.372;2022-11-10T09:29:24;100.87;;;60.37;;
6135;SDS011;24008;42.664;23.372;2022-11-10T09:31:51;107.37;;;59.33;;
6135;SDS011;24008;42.664;23.372;2022-11-10T09:34:18;98.27;;;58.10;;
6135;SDS011;24008;42.664;23.372;2022-11-10T09:36:45;101.53;;;58.77;;
6135;SDS011;24008;42.664;23.372;2022-11-10T09:39:11;98.33;;;58.17;;
6135;SDS011;24008;42.664;23.372;2022-11-10T09:41:42;94.10;;;56.63;;
6135;SDS011;24008;42.664;23.372;2022-11-10T09:44:13;93.20;;;57.93;;
6135;SDS011;24008;42.664;23.372;2022-11-10T09:46:45;90.33;;;56.53;;
6135;SDS011;24008;42.664;23.372;2022-11-10T09:49:22;97.33;;;56.07;;
6135;SDS011;24008;42.664;23.372;2022-11-10T09:51:56;86.60;;;53.83;;
6135;SDS011;24008;42.664;23.372;2022-11-10T09:54:27;80.77;;;52.43;;
6135;SDS011;24008;42.664;23.372;2022-11-10T09:57:02;87.87;;;52.37;;
6135;SDS011;24008;42.664;23.372;2022-11-10T09:59:33;82.03;;;51.43;;
6135;SDS011;24008;42.664;23.372;2022-11-10T10:02:02;79.73;;;52.57;;
6135;SDS011;24008;42.664;23.372;2022-11-10T10:04:44;82.97;;;51.77;;
6135;SDS011;24008;42.664;23.372;2022-11-10T10:07:24;84.43;;;51.90;;
6135;SDS011;24008;42.664;23.372;2022-11-10T10:09:59;79.80;;;50.50;;
6135;SDS011;24008;42.664;23.372;2022-11-10T10:12:39;82.87;;;51.53;;
6135;SDS011;24008;42.664;23.372;2022-11-10T10:15:17;82.20;;;52.53;;
6135;SDS011;24008;42.664;23.372;2022-11-10T10:17:57;84.03;;;52.30;;
6135;SDS011;24008;42.664;23.372;2022-11-10T10:20:38;84.43;;;51.77;;
6135;SDS011;24008;42.664;23.372;2022-11-10T10:23:15;90.73;;;52.13;;
6135;SDS011;24008;42.664;23.372;2022-11-10T10:25:48;88.47;;;52.60;;
6135;SDS011;24008;42.664;23.372;2022-11-10T10:28:22;83.47;;;51.13;;
6135;SDS011;24008;42.664;23.372;2022-11-10T10:30:55;84.17;;;50.87;;
6135;SDS011;24008;42.664;23.372;2022-11-10T10:33:32;79.03;;;49.53;;
6135;SDS011;24008;42.664;23.372;2022-11-10T10:35:59;90.90;;;51.33;;
6135;SDS011;24008;42.664;23.372;2022-11-10T10:38:35;89.70;;;52.63;;
6135;SDS011;24008;42.664;23.372;2022-11-10T10:41:09;87.83;;;51.57;;
6135;SDS011;24008;42.664;23.372;2022-11-10T10:43:40;93.60;;;52.43;;
6135;SDS011;24008;42.664;23.372;2022-11-10T10:46:13;90.83;;;53.37;;
6135;SDS011;24008;42.664;23.372;2022-11-10T10:48:41;88.27;;;51.80;;
6135;SDS011;24008;42.664;23.372;2022-11-10T10:51:08;93.40;;;51.57;;
6135;SDS011;24008;42.664;23.372;2022-11-10T10:53:43;89.87;;;52.90;;
6135;SDS011;24008;42.664;23.372;2022-11-10T10:56:12;93.03;;;53.67;;
6135;SDS011;24008;42.664;23.372;2022-11-10T10:58:48;81.67;;;52.03;;
6135;SDS011;24008;42.664;23.372;2022-11-10T11:01:20;90.30;;;52.50;;
6135;SDS011;24008;42.664;23.372;2022-11-10T11:03:52;89.00;;;53.13;;
6135;SDS011;24008;42.664;23.372;2022-11-10T11:06:20;88.13;;;52.13;;
6135;SDS011;24008;42.664;23.372;2022-11-10T11:08:53;95.90;;;52.80;;
6135;SDS011;24008;42.664;23.372;2022-11-10T11:11:22;92.40;;;50.57;;
6135;SDS011;24008;42.664;23.372;2022-11-10T11:13:51;87.37;;;50.17;;
6135;SDS011;24008;42.664;23.372;2022-11-10T11:16:19;83.07;;;51.03;;
6135;SDS011;24008;42.664;23.372;2022-11-10T11:18:46;77.33;;;48.17;;
6135;SDS011;24008;42.664;23.372;2022-11-10T11:21:17;84.37;;;47.73;;
6135;SDS011;24008;42.664;23.372;2022-11-10T11:24:08;82.63;;;48.23;;
6135;SDS011;24008;42.664;23.372;2022-11-10T11:26:45;79.07;;;48.13;;
6135;SDS011;24008;42.664;23.372;2022-11-10T11:32:26;82.40;;;48.37;;
6135;SDS011;24008;42.664;23.372;2022-11-10T11:35:10;79.90;;;48.27;;
6135;SDS011;24008;42.664;23.372;2022-11-10T11:37:44;87.70;;;48.70;;
6135;SDS011;24008;42.664;23.372;2022-11-10T11:40:21;79.17;;;46.83;;
6135;SDS011;24008;42.664;23.372;2022-11-10T11:42:59;79.37;;;46.47;;
6135;SDS011;24008;42.664;23.372;2022-11-10T11:45:36;79.93;;;48.10;;
6135;SDS011;24008;42.664;23.372;2022-11-10T11:48:19;78.83;;;46.07;;
6135;SDS011;24008;42.664;23.372;2022-11-10T11:51:07;80.47;;;48.87;;
6135;SDS011;24008;42.664;23.372;2022-11-10T11:53:45;75.33;;;46.00;;
6135;SDS011;24008;42.664;23.372;2022-11-10T11:56:25;87.83;;;48.63;;
6135;SDS011;24008;42.664;23.372;2022-11-10T11:58:59;74.70;;;46.13;;
6135;SDS011;24008;42.664;23.372;2022-11-10T12:01:43;73.83;;;46.70;;
6135;SDS011;24008;42.664;23.372;2022-11-10T12:04:33;76.30;;;47.33;;
6135;SDS011;24008;42.664;23.372;2022-11-10T12:07:12;80.47;;;45.13;;
6135;SDS011;24008;42.664;23.372;2022-11-10T12:09:49;70.03;;;43.90;;
6135;SDS011;24008;42.664;23.372;2022-11-10T12:12:29;67.43;;;43.57;;
6135;SDS011;24008;42.664;23.372;2022-11-10T12:15:24;73.20;;;44.03;;
6135;SDS011;24008;42.664;23.372;2022-11-10T12:18:00;68.57;;;44.00;;
6135;SDS011;24008;42.664;23.372;2022-11-10T12:20:41;71.73;;;43.73;;
6135;SDS011;24008;42.664;23.372;2022-11-10T12:23:18;73.37;;;45.47;;
6135;SDS011;24008;42.664;23.372;2022-11-10T12:25:53;70.97;;;44.23;;
6135;SDS011;24008;42.664;23.372;2022-11-10T12:28:30;80.73;;;45.13;;
6135;SDS011;24008;42.664;23.372;2022-11-10T12:31:02;74.07;;;45.60;;
6135;SDS011;24008;42.664;23.372;2022-11-10T12:33:35;69.20;;;43.30;;
6135;SDS011;24008;42.664;23.372;2022-11-10T12:36:11;67.50;;;42.83;;
6135;SDS011;24008;42.664;23.372;2022-11-10T12:38:42;68.03;;;42.80;;
6135;SDS011;24008;42.664;23.372;2022-11-10T12:41:13;76.00;;;46.00;;
6135;SDS011;24008;42.664;23.372;2022-11-10T12:43:55;75.40;;;45.37;;
6135;SDS011;24008;42.664;23.372;2022-11-10T12:46:28;69.80;;;43.77;;
6135;SDS011;24008;42.664;23.372;2022-11-10T12:48:56;65.10;;;42.67;;
6135;SDS011;24008;42.664;23.372;2022-11-10T12:51:34;71.53;;;42.10;;
6135;SDS011;24008;42.664;23.372;2022-11-10T12:54:08;66.53;;;44.07;;
6135;SDS011;24008;42.664;23.372;2022-11-10T12:56:38;68.20;;;42.67;;
6135;SDS011;24008;42.664;23.372;2022-11-10T12:59:14;62.90;;;41.90;;
6135;SDS011;24008;42.664;23.372;2022-11-10T13:01:46;65.17;;;41.53;;
6135;SDS011;24008;42.664;23.372;2022-11-10T13:04:16;68.13;;;40.93;;
6135;SDS011;24008;42.664;23.372;2022-11-10T13:06:47;67.03;;;42.20;;
6135;SDS011;24008;42.664;23.372;2022-11-10T13:09:22;67.20;;;41.77;;
6135;SDS011;24008;42.664;23.372;2022-11-10T13:12:05;61.67;;;40.70;;
6135;SDS011;24008;42.664;23.372;2022-11-10T13:14:43;66.97;;;40.83;;
6135;SDS011;24008;42.664;23.372;2022-11-10T13:23:22;61.93;;;40.23;;
6135;SDS011;24008;42.664;23.372;2022-11-10T13:25:52;63.80;;;40.47;;
6135;SDS011;24008;42.664;23.372;2022-11-10T13:31:46;70.50;;;41.50;;
6135;SDS011;24008;42.664;23.372;2022-11-10T13:34:26;78.00;;;41.57;;
6135;SDS011;24008;42.664;23.372;2022-11-10T13:36:58;67.83;;;40.70;;
6135;SDS011;24008;42.664;23.372;2022-11-10T13:39:28;71.37;;;41.60;;
6135;SDS011;24008;42.664;23.372;2022-11-10T13:41:58;72.97;;;41.17;;
6135;SDS011;24008;42.664;23.372;2022-11-10T13:44:28;70.13;;;40.67;;
6135;SDS011;24008;42.664;23.372;2022-11-10T13:50:00;63.17;;;41.10;;
6135;SDS011;24008;42.664;23.372;2022-11-10T13:52:42;65.40;;;39.60;;
6135;SDS011;24008;42.664;23.372;2022-11-10T13:55:22;59.83;;;39.40;;
6135;SDS011;24008;42.664;23.372;2022-11-10T13:58:01;60.87;;;40.60;;
6135;SDS011;24008;42.664;23.372;2022-11-10T14:00:30;62.93;;;39.13;;
6135;SDS011;24008;42.664;23.372;2022-11-10T14:02:58;64.63;;;38.90;;
6135;SDS011;24008;42.664;23.372;2022-11-10T14:08:36;65.77;;;39.70;;
6135;SDS011;24008;42.664;23.372;2022-11-10T14:11:28;61.77;;;38.67;;
6135;SDS011;24008;42.664;23.372;2022-11-10T14:14:01;67.90;;;41.33;;
6135;SDS011;24008;42.664;23.372;2022-11-10T14:16:38;64.13;;;39.37;;
6135;SDS011;24008;42.664;23.372;2022-11-10T14:19:15;68.30;;;40.07;;
6135;SDS011;24008;42.664;23.372;2022-11-10T14:21:50;65.20;;;39.40;;
6135;SDS011;24008;42.664;23.372;2022-11-10T14:24:21;65.40;;;39.80;;
6135;SDS011;24008;42.664;23.372;2022-11-10T14:26:55;61.03;;;39.53;;
6135;SDS011;24008;42.664;23.372;2022-11-10T14:29:27;61.17;;;40.00;;
6135;SDS011;24008;42.664;23.372;2022-11-10T14:31:56;67.47;;;41.00;;
6135;SDS011;24008;42.664;23.372;2022-11-10T14:34:25;66.53;;;40.77;;
6135;SDS011;24008;42.664;23.372;2022-11-10T14:36:53;65.17;;;41.07;;
6135;SDS011;24008;42.664;23.372;2022-11-10T14:39:23;65.77;;;42.10;;
6135;SDS011;24008;42.664;23.372;2022-11-10T14:41:57;71.03;;;42.27;;
6135;SDS011;24008;42.664;23.372;2022-11-10T14:44:27;72.00;;;41.40;;
6135;SDS011;24008;42.664;23.372;2022-11-10T14:46:56;69.73;;;42.27;;
6135;SDS011;24008;42.664;23.372;2022-11-10T14:49:38;78.67;;;44.87;;
6135;SDS011;24008;42.664;23.372;2022-11-10T14:52:07;73.40;;;43.07;;
6135;SDS011;24008;42.664;23.372;2022-11-10T14:54:41;69.57;;;43.07;;
6135;SDS011;24008;42.664;23.372;2022-11-10T14:57:14;68.90;;;41.97;;
6135;SDS011;24008;42.664;23.372;2022-11-10T14:59:44;64.77;;;41.70;;